createdAt,value
2019-05-07T00:00:03.336Z,5.3
2019-05-07T00:05:02.787Z,5.4
2019-05-07T00:10:03.439Z,5.4
2019-05-07T00:15:04.661Z,5.3
2019-05-07T00:20:03.198Z,5.0
2019-05-07T00:25:03.223Z,5.0
2019-05-07T00:30:02.984Z,4.8
2019-05-07T00:35:02.597Z,4.8
2019-05-07T00:40:03.029Z,4.8
2019-05-07T00:45:14.064Z,4.5
2019-05-07T00:50:03.409Z,4.5
2019-05-07T00:55:03.059Z,4.5
2019-05-07T01:00:02.555Z,4.5
2019-05-07T01:05:03.210Z,4.3
2019-05-07T01:10:02.785Z,4.3
2019-05-07T01:15:03.231Z,4.3
2019-05-07T01:20:03.022Z,4.3
2019-05-07T01:25:02.625Z,4.3
2019-05-07T01:30:03.060Z,4.0
2019-05-07T01:35:02.614Z,4.0
2019-05-07T01:40:03.252Z,4.0
2019-05-07T01:45:02.763Z,3.7
2019-05-07T01:50:03.284Z,3.7
2019-05-07T01:55:03.377Z,3.7
2019-05-07T02:00:02.870Z,3.5
2019-05-07T02:05:03.360Z,3.5
2019-05-07T02:10:02.970Z,3.5
2019-05-07T02:15:02.874Z,3.7
2019-05-07T02:20:03.345Z,3.7
2019-05-07T02:25:03.287Z,3.5
2019-05-07T02:30:04.123Z,3.2
2019-05-07T02:35:04.026Z,3.5
2019-05-07T02:40:04.457Z,3.7
2019-05-07T02:45:04.115Z,3.7
2019-05-07T02:50:03.273Z,3.7
2019-05-07T02:55:03.949Z,4.0
2019-05-07T03:00:04.527Z,4.0
2019-05-07T03:05:05.127Z,4.0
2019-05-07T03:10:03.787Z,4.0
2019-05-07T03:15:04.466Z,4.0
2019-05-07T03:20:03.335Z,3.7
2019-05-07T03:25:03.409Z,3.7
2019-05-07T03:30:04.386Z,3.7
2019-05-07T03:35:06.593Z,3.7
2019-05-07T03:40:04.149Z,3.5
2019-05-07T03:45:03.872Z,3.5
2019-05-07T03:50:03.716Z,3.5
2019-05-07T03:55:03.770Z,3.7
2019-05-07T04:00:04.350Z,3.5
2019-05-07T04:05:04.279Z,3.7
2019-05-07T04:10:04.403Z,3.2
2019-05-07T04:15:03.612Z,3.2
2019-05-07T04:20:04.497Z,3.2
2019-05-07T04:25:04.368Z,3.5
2019-05-07T04:30:03.840Z,3.7
2019-05-07T04:35:03.849Z,3.7
2019-05-07T04:40:03.349Z,4.0
2019-05-07T04:45:04.277Z,4.0
2019-05-07T04:50:03.780Z,4.5
2019-05-07T04:55:03.978Z,4.5
2019-05-07T05:00:03.634Z,4.5
2019-05-07T05:05:03.516Z,4.8
2019-05-07T05:10:03.112Z,5.0
2019-05-07T05:15:02.530Z,5.0
2019-05-07T05:20:03.526Z,5.3
2019-05-07T05:25:03.245Z,5.4
2019-05-07T05:30:03.112Z,5.8
2019-05-07T05:35:03.317Z,5.5
2019-05-07T05:40:08.511Z,6.0
2019-05-07T05:45:03.344Z,6.1
2019-05-07T05:50:02.911Z,6.4
2019-05-07T05:55:03.423Z,5.9
2019-05-07T06:00:02.822Z,5.9
2019-05-07T06:05:02.482Z,6.0
2019-05-07T06:10:03.003Z,6.0
2019-05-07T06:15:02.510Z,6.4
2019-05-07T06:20:03.133Z,6.6
2019-05-07T06:25:02.715Z,6.6
2019-05-07T06:30:05.073Z,7.1
2019-05-07T06:35:03.232Z,7.6
2019-05-07T06:40:02.764Z,7.5
2019-05-07T06:45:03.244Z,7.9
2019-05-07T06:50:03.211Z,8.0
2019-05-07T06:55:03.331Z,0
2019-05-07T19:55:00.841Z,9.6
2019-05-07T19:55:04.720Z,9.6
2019-05-07T20:00:02.488Z,9.5
2019-05-07T20:05:03.645Z,9.1
2019-05-07T20:10:03.138Z,9.3
2019-05-07T20:15:02.863Z,9.1
2019-05-07T20:20:03.454Z,9.1
2019-05-07T20:25:15.186Z,9.0
2019-05-07T20:30:03.353Z,9.1
2019-05-07T20:35:02.914Z,9.0
2019-05-07T20:40:03.435Z,8.8
2019-05-07T20:45:03.140Z,8.6
2019-05-07T20:50:02.647Z,8.5
2019-05-07T20:55:03.174Z,8.5
2019-05-07T21:00:02.896Z,8.3
2019-05-07T21:05:03.079Z,8.5
2019-05-07T21:10:02.651Z,8.5
2019-05-07T21:15:03.421Z,8.5
2019-05-07T21:22:13.068Z,8.3
2019-05-07T21:25:02.844Z,8.1
2019-05-07T21:30:03.400Z,8.1
2019-05-07T21:35:02.841Z,8.0
2019-05-07T21:40:03.379Z,7.9
2019-05-07T21:45:02.881Z,7.6
2019-05-07T21:50:03.478Z,7.5
2019-05-07T21:55:03.060Z,7.5
2019-05-07T22:00:02.595Z,7.6
2019-05-07T22:05:03.129Z,7.5
2019-05-07T22:10:02.643Z,7.4
2019-05-07T22:15:10.261Z,7.4
2019-05-07T22:20:03.142Z,7.0
2019-05-07T22:25:05.299Z,7.0
2019-05-07T22:30:02.870Z,6.9
2019-05-07T22:35:03.357Z,6.9
2019-05-07T22:40:02.979Z,6.6
2019-05-07T22:45:02.918Z,6.6
2019-05-07T22:50:02.934Z,6.6
2019-05-07T22:55:02.469Z,6.6
2019-05-07T23:00:07.544Z,6.6
2019-05-07T23:05:03.114Z,6.6
2019-05-07T23:10:02.987Z,6.6
2019-05-07T23:15:02.870Z,6.6
2019-05-07T23:20:03.439Z,6.9
2019-05-07T23:25:02.983Z,6.9
2019-05-07T23:30:02.768Z,7.0
2019-05-07T23:35:03.321Z,7.0
2019-05-07T23:40:03.095Z,6.9
2019-05-07T23:45:02.161Z,6.9
2019-05-07T23:50:02.651Z,6.9
2019-05-07T23:55:03.150Z,6.9
